sensor_id;sensor_type;location;lat;lon;timestamp;temperature;humidity
50013;DHT22;35901;48.694;9.476;2024-01-07T00:00:34;3.30;99.90
50013;DHT22;35901;48.694;9.476;2024-01-07T00:03:00;3.30;99.90
50013;DHT22;35901;48.694;9.476;2024-01-07T00:05:26;3.30;99.90
50013;DHT22;35901;48.694;9.476;2024-01-07T00:07:52;3.30;99.90
50013;DHT22;35901;48.694;9.476;2024-01-07T00:10:17;3.30;99.90
50013;DHT22;35901;48.694;9.476;2024-01-07T00:12:44;3.30;99.90
50013;DHT22;35901;48.694;9.476;2024-01-07T00:15:10;3.30;99.90
50013;DHT22;35901;48.694;9.476;2024-01-07T00:17:37;3.30;99.90
50013;DHT22;35901;48.694;9.476;2024-01-07T00:20:03;3.30;99.90
50013;DHT22;35901;48.694;9.476;2024-01-07T00:22:29;3.30;99.90
50013;DHT22;35901;48.694;9.476;2024-01-07T00:24:54;3.30;99.90
50013;DHT22;35901;48.694;9.476;2024-01-07T00:27:20;3.30;99.90
50013;DHT22;35901;48.694;9.476;2024-01-07T00:29:46;3.30;99.90
50013;DHT22;35901;48.694;9.476;2024-01-07T00:32:12;3.30;99.90
50013;DHT22;35901;48.694;9.476;2024-01-07T00:34:38;3.40;99.90
50013;DHT22;35901;48.694;9.476;2024-01-07T00:37:03;3.40;99.90
50013;DHT22;35901;48.694;9.476;2024-01-07T00:39:29;3.40;99.90
50013;DHT22;35901;48.694;9.476;2024-01-07T00:41:55;3.40;99.90
50013;DHT22;35901;48.694;9.476;2024-01-07T00:44:20;3.40;99.90
50013;DHT22;35901;48.694;9.476;2024-01-07T00:46:46;3.40;99.90
50013;DHT22;35901;48.694;9.476;2024-01-07T00:49:11;3.40;99.90
50013;DHT22;35901;48.694;9.476;2024-01-07T00:51:37;3.40;99.90
50013;DHT22;35901;48.694;9.476;2024-01-07T00:54:03;3.50;99.90
50013;DHT22;35901;48.694;9.476;2024-01-07T00:56:28;3.40;99.90
50013;DHT22;35901;48.694;9.476;2024-01-07T00:58:55;3.40;99.90
50013;DHT22;35901;48.694;9.476;2024-01-07T01:01:31;3.40;99.90
50013;DHT22;35901;48.694;9.476;2024-01-07T01:03:57;3.40;99.90
50013;DHT22;35901;48.694;9.476;2024-01-07T01:06:23;3.40;99.90
50013;DHT22;35901;48.694;9.476;2024-01-07T01:08:49;3.40;99.90
50013;DHT22;35901;48.694;9.476;2024-01-07T01:11:14;3.40;99.90
50013;DHT22;35901;48.694;9.476;2024-01-07T01:13:40;3.40;99.90
50013;DHT22;35901;48.694;9.476;2024-01-07T01:16:06;3.40;99.90
50013;DHT22;35901;48.694;9.476;2024-01-07T01:18:32;3.40;99.90
50013;DHT22;35901;48.694;9.476;2024-01-07T01:20:57;3.40;99.90
50013;DHT22;35901;48.694;9.476;2024-01-07T01:23:23;3.40;99.90
50013;DHT22;35901;48.694;9.476;2024-01-07T01:25:49;3.40;99.90
50013;DHT22;35901;48.694;9.476;2024-01-07T01:28:14;3.30;99.90
50013;DHT22;35901;48.694;9.476;2024-01-07T01:30:40;3.40;99.90
50013;DHT22;35901;48.694;9.476;2024-01-07T01:33:13;3.30;99.90
50013;DHT22;35901;48.694;9.476;2024-01-07T01:35:39;3.30;99.90
50013;DHT22;35901;48.694;9.476;2024-01-07T01:38:05;3.30;99.90
50013;DHT22;35901;48.694;9.476;2024-01-07T01:40:30;3.30;99.90
50013;DHT22;35901;48.694;9.476;2024-01-07T01:42:56;3.30;99.90
50013;DHT22;35901;48.694;9.476;2024-01-07T01:45:22;3.30;99.90
50013;DHT22;35901;48.694;9.476;2024-01-07T01:47:48;3.30;99.90
50013;DHT22;35901;48.694;9.476;2024-01-07T01:50:14;3.30;99.90
50013;DHT22;35901;48.694;9.476;2024-01-07T01:52:40;3.30;99.90
50013;DHT22;35901;48.694;9.476;2024-01-07T01:55:06;3.30;99.90
50013;DHT22;35901;48.694;9.476;2024-01-07T01:57:33;3.30;99.90
50013;DHT22;35901;48.694;9.476;2024-01-07T02:00:05;3.30;99.90
50013;DHT22;35901;48.694;9.476;2024-01-07T02:02:32;3.30;99.90
50013;DHT22;35901;48.694;9.476;2024-01-07T02:05:01;3.30;99.90
50013;DHT22;35901;48.694;9.476;2024-01-07T02:07:28;3.30;99.90
50013;DHT22;35901;48.694;9.476;2024-01-07T02:09:54;3.30;99.90
50013;DHT22;35901;48.694;9.476;2024-01-07T02:12:20;3.30;99.90
50013;DHT22;35901;48.694;9.476;2024-01-07T02:14:56;3.30;99.90
50013;DHT22;35901;48.694;9.476;2024-01-07T02:17:23;3.30;99.90
50013;DHT22;35901;48.694;9.476;2024-01-07T02:19:49;3.20;99.90
50013;DHT22;35901;48.694;9.476;2024-01-07T02:22:17;3.20;99.90
50013;DHT22;35901;48.694;9.476;2024-01-07T02:24:44;3.20;99.90
50013;DHT22;35901;48.694;9.476;2024-01-07T02:27:10;3.20;99.90
50013;DHT22;35901;48.694;9.476;2024-01-07T02:29:36;3.10;99.90
50013;DHT22;35901;48.694;9.476;2024-01-07T02:32:01;3.10;99.90
50013;DHT22;35901;48.694;9.476;2024-01-07T02:34:27;3.10;99.90
50013;DHT22;35901;48.694;9.476;2024-01-07T02:36:53;3.10;99.90
50013;DHT22;35901;48.694;9.476;2024-01-07T02:39:18;3.10;99.90
50013;DHT22;35901;48.694;9.476;2024-01-07T02:41:44;3.10;99.90
50013;DHT22;35901;48.694;9.476;2024-01-07T02:44:10;3.10;99.90
50013;DHT22;35901;48.694;9.476;2024-01-07T02:46:36;3.00;99.90
50013;DHT22;35901;48.694;9.476;2024-01-07T02:49:01;3.00;99.90
50013;DHT22;35901;48.694;9.476;2024-01-07T02:51:27;3.00;99.90
50013;DHT22;35901;48.694;9.476;2024-01-07T02:53:52;3.00;99.90
50013;DHT22;35901;48.694;9.476;2024-01-07T02:56:18;2.90;99.90
50013;DHT22;35901;48.694;9.476;2024-01-07T02:58:44;2.90;99.90
50013;DHT22;35901;48.694;9.476;2024-01-07T03:01:10;2.90;99.90
50013;DHT22;35901;48.694;9.476;2024-01-07T03:03:41;2.90;99.90
50013;DHT22;35901;48.694;9.476;2024-01-07T03:06:06;2.90;99.90
50013;DHT22;35901;48.694;9.476;2024-01-07T03:08:32;2.90;99.90
50013;DHT22;35901;48.694;9.476;2024-01-07T03:10:58;2.90;99.90
50013;DHT22;35901;48.694;9.476;2024-01-07T03:13:23;2.90;99.90
50013;DHT22;35901;48.694;9.476;2024-01-07T03:15:49;3.00;99.90
50013;DHT22;35901;48.694;9.476;2024-01-07T03:18:14;2.90;99.90
50013;DHT22;35901;48.694;9.476;2024-01-07T03:20:40;3.00;99.90
50013;DHT22;35901;48.694;9.476;2024-01-07T03:23:06;2.90;99.90
50013;DHT22;35901;48.694;9.476;2024-01-07T03:25:31;3.00;99.90
50013;DHT22;35901;48.694;9.476;2024-01-07T03:27:57;2.90;99.90
50013;DHT22;35901;48.694;9.476;2024-01-07T03:30:23;2.90;99.90
50013;DHT22;35901;48.694;9.476;2024-01-07T03:32:48;2.90;99.90
50013;DHT22;35901;48.694;9.476;2024-01-07T03:35:15;2.90;99.90
50013;DHT22;35901;48.694;9.476;2024-01-07T03:37:50;2.90;99.90
50013;DHT22;35901;48.694;9.476;2024-01-07T03:40:16;2.90;99.90
50013;DHT22;35901;48.694;9.476;2024-01-07T03:42:42;2.90;99.90
50013;DHT22;35901;48.694;9.476;2024-01-07T03:45:07;2.90;99.90
50013;DHT22;35901;48.694;9.476;2024-01-07T03:47:33;2.90;99.90
50013;DHT22;35901;48.694;9.476;2024-01-07T03:49:59;2.90;99.90
50013;DHT22;35901;48.694;9.476;2024-01-07T03:52:24;2.90;99.90
50013;DHT22;35901;48.694;9.476;2024-01-07T03:54:50;2.90;99.90
50013;DHT22;35901;48.694;9.476;2024-01-07T03:57:16;3.00;99.90
50013;DHT22;35901;48.694;9.476;2024-01-07T03:59:42;3.00;99.90
50013;DHT22;35901;48.694;9.476;2024-01-07T04:02:08;3.00;99.90
50013;DHT22;35901;48.694;9.476;2024-01-07T04:04:34;3.00;99.90
50013;DHT22;35901;48.694;9.476;2024-01-07T04:06:59;3.00;99.90
50013;DHT22;35901;48.694;9.476;2024-01-07T04:09:25;3.00;99.90
50013;DHT22;35901;48.694;9.476;2024-01-07T04:11:51;3.00;99.90
50013;DHT22;35901;48.694;9.476;2024-01-07T04:14:16;3.10;99.90
50013;DHT22;35901;48.694;9.476;2024-01-07T04:16:42;3.10;99.90
50013;DHT22;35901;48.694;9.476;2024-01-07T04:19:08;3.10;99.90
50013;DHT22;35901;48.694;9.476;2024-01-07T04:21:33;3.10;99.90
50013;DHT22;35901;48.694;9.476;2024-01-07T04:23:59;3.10;99.90
50013;DHT22;35901;48.694;9.476;2024-01-07T04:26:24;3.20;99.90
50013;DHT22;35901;48.694;9.476;2024-01-07T04:28:50;3.20;99.90
50013;DHT22;35901;48.694;9.476;2024-01-07T04:31:16;3.20;99.90
50013;DHT22;35901;48.694;9.476;2024-01-07T04:33:42;3.20;99.90
50013;DHT22;35901;48.694;9.476;2024-01-07T04:36:17;3.10;99.90
50013;DHT22;35901;48.694;9.476;2024-01-07T04:38:43;3.10;99.90
50013;DHT22;35901;48.694;9.476;2024-01-07T04:41:09;3.20;99.90
50013;DHT22;35901;48.694;9.476;2024-01-07T04:43:35;3.10;99.90
50013;DHT22;35901;48.694;9.476;2024-01-07T04:46:02;3.10;99.90
50013;DHT22;35901;48.694;9.476;2024-01-07T04:48:28;3.10;99.90
50013;DHT22;35901;48.694;9.476;2024-01-07T04:50:53;3.00;99.90
50013;DHT22;35901;48.694;9.476;2024-01-07T04:53:19;3.00;99.90
50013;DHT22;35901;48.694;9.476;2024-01-07T04:55:45;3.00;99.90
50013;DHT22;35901;48.694;9.476;2024-01-07T04:58:10;3.00;99.90
50013;DHT22;35901;48.694;9.476;2024-01-07T05:00:36;3.00;99.90
50013;DHT22;35901;48.694;9.476;2024-01-07T05:03:01;3.00;99.90
50013;DHT22;35901;48.694;9.476;2024-01-07T05:05:29;3.00;99.90
50013;DHT22;35901;48.694;9.476;2024-01-07T05:07:55;3.00;99.90
50013;DHT22;35901;48.694;9.476;2024-01-07T05:10:21;3.00;99.90
50013;DHT22;35901;48.694;9.476;2024-01-07T05:12:46;3.00;99.90
50013;DHT22;35901;48.694;9.476;2024-01-07T05:15:12;3.00;99.90
50013;DHT22;35901;48.694;9.476;2024-01-07T05:17:37;3.00;99.90
50013;DHT22;35901;48.694;9.476;2024-01-07T05:20:03;3.00;99.90
50013;DHT22;35901;48.694;9.476;2024-01-07T05:22:31;3.00;99.90
50013;DHT22;35901;48.694;9.476;2024-01-07T05:24:57;3.00;99.90
50013;DHT22;35901;48.694;9.476;2024-01-07T05:27:22;3.00;99.90
50013;DHT22;35901;48.694;9.476;2024-01-07T05:29:48;3.00;99.90
50013;DHT22;35901;48.694;9.476;2024-01-07T05:32:15;3.00;99.90
50013;DHT22;35901;48.694;9.476;2024-01-07T05:34:40;3.00;99.90
50013;DHT22;35901;48.694;9.476;2024-01-07T05:37:06;3.00;99.90
50013;DHT22;35901;48.694;9.476;2024-01-07T05:39:31;3.00;99.90
50013;DHT22;35901;48.694;9.476;2024-01-07T05:41:57;3.00;99.90
50013;DHT22;35901;48.694;9.476;2024-01-07T05:44:23;3.00;99.90
50013;DHT22;35901;48.694;9.476;2024-01-07T05:46:48;3.00;99.90
50013;DHT22;35901;48.694;9.476;2024-01-07T05:49:14;3.00;99.90
50013;DHT22;35901;48.694;9.476;2024-01-07T05:51:40;3.00;99.90
50013;DHT22;35901;48.694;9.476;2024-01-07T05:54:06;3.00;99.90
50013;DHT22;35901;48.694;9.476;2024-01-07T05:56:31;3.00;99.90
50013;DHT22;35901;48.694;9.476;2024-01-07T05:58:57;3.00;99.90
50013;DHT22;35901;48.694;9.476;2024-01-07T06:01:23;3.00;99.90
50013;DHT22;35901;48.694;9.476;2024-01-07T06:03:48;3.00;99.90
50013;DHT22;35901;48.694;9.476;2024-01-07T06:06:14;2.90;99.90
50013;DHT22;35901;48.694;9.476;2024-01-07T06:08:44;3.00;99.90
50013;DHT22;35901;48.694;9.476;2024-01-07T06:11:09;2.90;99.90
50013;DHT22;35901;48.694;9.476;2024-01-07T06:13:37;2.90;99.90
50013;DHT22;35901;48.694;9.476;2024-01-07T06:16:03;2.90;99.90
50013;DHT22;35901;48.694;9.476;2024-01-07T06:18:29;2.90;99.90
50013;DHT22;35901;48.694;9.476;2024-01-07T06:20:55;2.90;99.90
50013;DHT22;35901;48.694;9.476;2024-01-07T06:23:20;2.90;99.90
50013;DHT22;35901;48.694;9.476;2024-01-07T06:25:46;2.90;99.90
50013;DHT22;35901;48.694;9.476;2024-01-07T06:28:11;2.90;99.90
50013;DHT22;35901;48.694;9.476;2024-01-07T06:30:37;2.90;99.90
50013;DHT22;35901;48.694;9.476;2024-01-07T06:33:03;2.90;99.90
50013;DHT22;35901;48.694;9.476;2024-01-07T06:35:29;2.90;99.90
50013;DHT22;35901;48.694;9.476;2024-01-07T06:37:54;2.90;99.90
50013;DHT22;35901;48.694;9.476;2024-01-07T06:40:20;2.90;99.90
50013;DHT22;35901;48.694;9.476;2024-01-07T06:42:46;2.80;99.90
50013;DHT22;35901;48.694;9.476;2024-01-07T06:45:13;2.80;99.90
50013;DHT22;35901;48.694;9.476;2024-01-07T06:47:40;2.80;99.90
50013;DHT22;35901;48.694;9.476;2024-01-07T06:50:06;2.80;99.90
50013;DHT22;35901;48.694;9.476;2024-01-07T06:52:32;2.80;99.90
50013;DHT22;35901;48.694;9.476;2024-01-07T06:54:58;2.80;99.90
50013;DHT22;35901;48.694;9.476;2024-01-07T06:57:23;2.70;99.90
50013;DHT22;35901;48.694;9.476;2024-01-07T06:59:49;2.70;99.90
50013;DHT22;35901;48.694;9.476;2024-01-07T07:02:14;2.70;99.90
50013;DHT22;35901;48.694;9.476;2024-01-07T07:04:40;2.70;99.90
50013;DHT22;35901;48.694;9.476;2024-01-07T07:07:06;2.70;99.90
50013;DHT22;35901;48.694;9.476;2024-01-07T07:09:31;2.70;99.90
50013;DHT22;35901;48.694;9.476;2024-01-07T07:11:57;2.80;99.90
50013;DHT22;35901;48.694;9.476;2024-01-07T07:14:22;2.70;99.90
50013;DHT22;35901;48.694;9.476;2024-01-07T07:16:48;2.70;99.90
50013;DHT22;35901;48.694;9.476;2024-01-07T07:19:14;2.70;99.90
50013;DHT22;35901;48.694;9.476;2024-01-07T07:21:41;2.70;99.90
50013;DHT22;35901;48.694;9.476;2024-01-07T07:24:06;2.70;99.90
50013;DHT22;35901;48.694;9.476;2024-01-07T07:26:32;2.70;99.90
50013;DHT22;35901;48.694;9.476;2024-01-07T07:28:58;2.70;99.90
50013;DHT22;35901;48.694;9.476;2024-01-07T07:31:26;2.70;99.90
50013;DHT22;35901;48.694;9.476;2024-01-07T07:33:51;2.70;99.90
50013;DHT22;35901;48.694;9.476;2024-01-07T07:36:17;2.70;99.90
50013;DHT22;35901;48.694;9.476;2024-01-07T07:38:43;2.70;99.90
50013;DHT22;35901;48.694;9.476;2024-01-07T07:41:08;2.70;99.90
50013;DHT22;35901;48.694;9.476;2024-01-07T07:43:34;2.80;99.90
50013;DHT22;35901;48.694;9.476;2024-01-07T07:46:00;2.70;99.90
50013;DHT22;35901;48.694;9.476;2024-01-07T07:48:28;2.70;99.90
50013;DHT22;35901;48.694;9.476;2024-01-07T07:50:54;2.70;99.90
50013;DHT22;35901;48.694;9.476;2024-01-07T07:53:20;2.70;99.90
50013;DHT22;35901;48.694;9.476;2024-01-07T07:55:45;2.60;99.90
50013;DHT22;35901;48.694;9.476;2024-01-07T07:58:11;2.60;99.90
50013;DHT22;35901;48.694;9.476;2024-01-07T08:00:37;2.60;99.90
50013;DHT22;35901;48.694;9.476;2024-01-07T08:03:04;2.50;99.90
50013;DHT22;35901;48.694;9.476;2024-01-07T08:05:29;2.50;99.90
50013;DHT22;35901;48.694;9.476;2024-01-07T08:07:55;2.50;99.90
50013;DHT22;35901;48.694;9.476;2024-01-07T08:10:21;2.50;99.90
50013;DHT22;35901;48.694;9.476;2024-01-07T08:12:48;2.50;99.90
50013;DHT22;35901;48.694;9.476;2024-01-07T08:15:14;2.50;99.90
50013;DHT22;35901;48.694;9.476;2024-01-07T08:17:40;2.50;99.90
50013;DHT22;35901;48.694;9.476;2024-01-07T08:20:06;2.50;99.90
50013;DHT22;35901;48.694;9.476;2024-01-07T08:22:32;2.50;99.90
50013;DHT22;35901;48.694;9.476;2024-01-07T08:24:58;2.50;99.90
50013;DHT22;35901;48.694;9.476;2024-01-07T08:27:24;2.50;99.90
50013;DHT22;35901;48.694;9.476;2024-01-07T08:29:49;2.50;99.90
50013;DHT22;35901;48.694;9.476;2024-01-07T08:32:15;2.50;99.90
50013;DHT22;35901;48.694;9.476;2024-01-07T08:34:41;2.50;99.90
50013;DHT22;35901;48.694;9.476;2024-01-07T08:37:07;2.50;99.90
50013;DHT22;35901;48.694;9.476;2024-01-07T08:39:34;2.60;99.90
50013;DHT22;35901;48.694;9.476;2024-01-07T08:41:59;2.60;99.90
50013;DHT22;35901;48.694;9.476;2024-01-07T08:44:25;2.60;99.90
50013;DHT22;35901;48.694;9.476;2024-01-07T08:46:51;2.60;99.90
50013;DHT22;35901;48.694;9.476;2024-01-07T08:49:17;2.70;99.90
50013;DHT22;35901;48.694;9.476;2024-01-07T08:51:42;2.60;99.90
50013;DHT22;35901;48.694;9.476;2024-01-07T08:54:08;2.60;99.90
50013;DHT22;35901;48.694;9.476;2024-01-07T08:56:34;2.60;99.90
50013;DHT22;35901;48.694;9.476;2024-01-07T08:59:00;2.60;99.90
50013;DHT22;35901;48.694;9.476;2024-01-07T09:01:25;2.70;99.90
50013;DHT22;35901;48.694;9.476;2024-01-07T09:03:51;2.70;99.90
50013;DHT22;35901;48.694;9.476;2024-01-07T09:06:17;2.60;99.90
50013;DHT22;35901;48.694;9.476;2024-01-07T09:08:42;2.60;99.90
50013;DHT22;35901;48.694;9.476;2024-01-07T09:11:08;2.60;99.90
50013;DHT22;35901;48.694;9.476;2024-01-07T09:13:37;2.60;99.90
50013;DHT22;35901;48.694;9.476;2024-01-07T09:16:03;2.60;99.90
50013;DHT22;35901;48.694;9.476;2024-01-07T09:18:29;2.60;99.90
50013;DHT22;35901;48.694;9.476;2024-01-07T09:20:58;2.50;99.90
50013;DHT22;35901;48.694;9.476;2024-01-07T09:23:24;2.50;99.90
50013;DHT22;35901;48.694;9.476;2024-01-07T09:25:49;2.50;99.90
50013;DHT22;35901;48.694;9.476;2024-01-07T09:28:15;2.50;99.90
50013;DHT22;35901;48.694;9.476;2024-01-07T09:30:41;2.50;99.90
50013;DHT22;35901;48.694;9.476;2024-01-07T09:33:07;2.50;99.90
50013;DHT22;35901;48.694;9.476;2024-01-07T09:35:32;2.40;99.90
50013;DHT22;35901;48.694;9.476;2024-01-07T09:37:58;2.40;99.90
50013;DHT22;35901;48.694;9.476;2024-01-07T09:40:26;2.40;99.90
50013;DHT22;35901;48.694;9.476;2024-01-07T09:42:52;2.40;99.90
50013;DHT22;35901;48.694;9.476;2024-01-07T09:45:18;2.30;99.90
50013;DHT22;35901;48.694;9.476;2024-01-07T09:47:45;2.30;99.90
50013;DHT22;35901;48.694;9.476;2024-01-07T09:50:11;2.30;99.90
50013;DHT22;35901;48.694;9.476;2024-01-07T09:52:38;2.30;99.90
50013;DHT22;35901;48.694;9.476;2024-01-07T09:55:09;2.30;99.90
50013;DHT22;35901;48.694;9.476;2024-01-07T09:57:40;2.20;99.90
50013;DHT22;35901;48.694;9.476;2024-01-07T10:00:09;2.20;99.90
50013;DHT22;35901;48.694;9.476;2024-01-07T10:02:38;2.20;99.90
50013;DHT22;35901;48.694;9.476;2024-01-07T10:05:06;2.10;99.90
50013;DHT22;35901;48.694;9.476;2024-01-07T10:07:32;2.10;99.90
50013;DHT22;35901;48.694;9.476;2024-01-07T10:10:02;2.00;99.90
50013;DHT22;35901;48.694;9.476;2024-01-07T10:12:36;2.00;99.90
50013;DHT22;35901;48.694;9.476;2024-01-07T10:15:01;2.00;99.90
50013;DHT22;35901;48.694;9.476;2024-01-07T10:17:27;1.90;99.90
50013;DHT22;35901;48.694;9.476;2024-01-07T10:19:53;1.90;99.90
50013;DHT22;35901;48.694;9.476;2024-01-07T10:22:19;1.90;99.90
50013;DHT22;35901;48.694;9.476;2024-01-07T10:24:45;1.90;99.90
50013;DHT22;35901;48.694;9.476;2024-01-07T10:27:11;2.00;99.90
50013;DHT22;35901;48.694;9.476;2024-01-07T10:29:37;2.10;99.90
50013;DHT22;35901;48.694;9.476;2024-01-07T10:32:03;2.10;99.90
50013;DHT22;35901;48.694;9.476;2024-01-07T10:34:36;2.00;99.90
50013;DHT22;35901;48.694;9.476;2024-01-07T10:37:04;2.00;99.90
50013;DHT22;35901;48.694;9.476;2024-01-07T10:39:30;2.00;99.90
50013;DHT22;35901;48.694;9.476;2024-01-07T10:42:04;2.00;99.90
50013;DHT22;35901;48.694;9.476;2024-01-07T10:44:31;2.00;99.90
50013;DHT22;35901;48.694;9.476;2024-01-07T10:46:58;2.10;99.90
50013;DHT22;35901;48.694;9.476;2024-01-07T10:49:26;2.00;99.90
50013;DHT22;35901;48.694;9.476;2024-01-07T10:52:06;2.10;99.90
50013;DHT22;35901;48.694;9.476;2024-01-07T10:54:34;2.10;99.90
50013;DHT22;35901;48.694;9.476;2024-01-07T10:59:56;1.90;99.90
50013;DHT22;35901;48.694;9.476;2024-01-07T11:02:22;1.90;99.90
50013;DHT22;35901;48.694;9.476;2024-01-07T11:04:54;2.00;99.90
50013;DHT22;35901;48.694;9.476;2024-01-07T11:07:41;1.90;99.90
50013;DHT22;35901;48.694;9.476;2024-01-07T11:10:25;1.90;99.90
50013;DHT22;35901;48.694;9.476;2024-01-07T11:12:55;1.90;99.90
50013;DHT22;35901;48.694;9.476;2024-01-07T11:18:21;1.90;99.90
50013;DHT22;35901;48.694;9.476;2024-01-07T11:20:48;1.90;99.90
50013;DHT22;35901;48.694;9.476;2024-01-07T11:23:27;1.90;99.90
50013;DHT22;35901;48.694;9.476;2024-01-07T11:25:56;1.90;99.90
50013;DHT22;35901;48.694;9.476;2024-01-07T11:28:55;1.90;99.90
50013;DHT22;35901;48.694;9.476;2024-01-07T11:34:04;1.90;99.90
50013;DHT22;35901;48.694;9.476;2024-01-07T11:36:30;2.00;99.90
50013;DHT22;35901;48.694;9.476;2024-01-07T11:38:56;2.00;99.90
50013;DHT22;35901;48.694;9.476;2024-01-07T11:41:24;2.00;99.90
50013;DHT22;35901;48.694;9.476;2024-01-07T11:44:09;2.00;99.90
50013;DHT22;35901;48.694;9.476;2024-01-07T11:46:37;2.00;99.90
50013;DHT22;35901;48.694;9.476;2024-01-07T11:49:02;2.10;99.90
50013;DHT22;35901;48.694;9.476;2024-01-07T11:51:30;2.00;99.90
50013;DHT22;35901;48.694;9.476;2024-01-07T11:53:57;1.90;99.90
50013;DHT22;35901;48.694;9.476;2024-01-07T11:56:24;2.00;99.90
50013;DHT22;35901;48.694;9.476;2024-01-07T11:58:51;1.90;99.90
50013;DHT22;35901;48.694;9.476;2024-01-07T12:01:17;1.80;99.90
50013;DHT22;35901;48.694;9.476;2024-01-07T12:03:44;1.80;99.90
50013;DHT22;35901;48.694;9.476;2024-01-07T12:06:10;1.70;99.90
50013;DHT22;35901;48.694;9.476;2024-01-07T12:08:43;1.70;99.90
50013;DHT22;35901;48.694;9.476;2024-01-07T12:11:14;1.70;99.90
50013;DHT22;35901;48.694;9.476;2024-01-07T12:13:42;1.70;99.90
50013;DHT22;35901;48.694;9.476;2024-01-07T12:16:08;1.70;99.90
50013;DHT22;35901;48.694;9.476;2024-01-07T12:18:38;1.70;99.90
50013;DHT22;35901;48.694;9.476;2024-01-07T12:21:04;1.70;99.90
50013;DHT22;35901;48.694;9.476;2024-01-07T12:23:35;1.60;99.90
50013;DHT22;35901;48.694;9.476;2024-01-07T12:26:09;1.60;99.90
50013;DHT22;35901;48.694;9.476;2024-01-07T12:28:34;1.50;99.90
50013;DHT22;35901;48.694;9.476;2024-01-07T12:31:01;1.50;99.90
50013;DHT22;35901;48.694;9.476;2024-01-07T12:33:27;1.50;99.90
50013;DHT22;35901;48.694;9.476;2024-01-07T12:35:54;1.60;99.90
50013;DHT22;35901;48.694;9.476;2024-01-07T12:38:27;1.50;99.90
50013;DHT22;35901;48.694;9.476;2024-01-07T12:40:53;1.50;99.90
50013;DHT22;35901;48.694;9.476;2024-01-07T12:43:19;1.60;99.90
50013;DHT22;35901;48.694;9.476;2024-01-07T12:45:48;1.60;99.90
50013;DHT22;35901;48.694;9.476;2024-01-07T12:48:13;1.50;99.90
50013;DHT22;35901;48.694;9.476;2024-01-07T12:50:39;1.50;99.90
50013;DHT22;35901;48.694;9.476;2024-01-07T12:53:05;1.40;99.90
50013;DHT22;35901;48.694;9.476;2024-01-07T12:55:31;1.40;99.90
50013;DHT22;35901;48.694;9.476;2024-01-07T12:57:57;1.30;99.90
50013;DHT22;35901;48.694;9.476;2024-01-07T13:00:24;1.30;99.90
50013;DHT22;35901;48.694;9.476;2024-01-07T13:02:50;1.30;99.90
50013;DHT22;35901;48.694;9.476;2024-01-07T13:05:17;1.30;99.90
50013;DHT22;35901;48.694;9.476;2024-01-07T13:07:42;1.40;99.90
50013;DHT22;35901;48.694;9.476;2024-01-07T13:10:08;1.30;99.90
50013;DHT22;35901;48.694;9.476;2024-01-07T13:12:35;1.20;99.90
50013;DHT22;35901;48.694;9.476;2024-01-07T13:15:02;1.20;99.90
50013;DHT22;35901;48.694;9.476;2024-01-07T13:17:27;1.30;99.90
50013;DHT22;35901;48.694;9.476;2024-01-07T13:19:55;1.20;99.90
50013;DHT22;35901;48.694;9.476;2024-01-07T13:22:21;1.10;99.90
50013;DHT22;35901;48.694;9.476;2024-01-07T13:24:46;1.00;99.90
50013;DHT22;35901;48.694;9.476;2024-01-07T13:27:12;0.90;99.90
50013;DHT22;35901;48.694;9.476;2024-01-07T13:29:38;0.90;99.90
50013;DHT22;35901;48.694;9.476;2024-01-07T13:32:04;0.80;99.90
50013;DHT22;35901;48.694;9.476;2024-01-07T13:34:30;0.80;99.90
50013;DHT22;35901;48.694;9.476;2024-01-07T13:36:56;0.80;99.90
50013;DHT22;35901;48.694;9.476;2024-01-07T13:39:22;0.80;99.90
50013;DHT22;35901;48.694;9.476;2024-01-07T13:41:47;0.70;99.90
50013;DHT22;35901;48.694;9.476;2024-01-07T13:44:13;0.70;99.90
50013;DHT22;35901;48.694;9.476;2024-01-07T13:46:46;0.70;99.90
50013;DHT22;35901;48.694;9.476;2024-01-07T13:49:15;0.60;99.90
50013;DHT22;35901;48.694;9.476;2024-01-07T13:51:41;0.60;99.90
50013;DHT22;35901;48.694;9.476;2024-01-07T13:54:07;0.50;99.90
50013;DHT22;35901;48.694;9.476;2024-01-07T13:56:35;0.50;99.90
50013;DHT22;35901;48.694;9.476;2024-01-07T13:59:02;0.50;99.90
50013;DHT22;35901;48.694;9.476;2024-01-07T14:01:31;0.50;99.90
50013;DHT22;35901;48.694;9.476;2024-01-07T14:03:57;0.50;99.90
50013;DHT22;35901;48.694;9.476;2024-01-07T14:06:22;0.50;99.90
50013;DHT22;35901;48.694;9.476;2024-01-07T14:08:48;0.50;99.90
50013;DHT22;35901;48.694;9.476;2024-01-07T14:11:14;0.50;99.90
50013;DHT22;35901;48.694;9.476;2024-01-07T14:13:39;0.40;99.90
50013;DHT22;35901;48.694;9.476;2024-01-07T14:16:06;0.50;99.90
50013;DHT22;35901;48.694;9.476;2024-01-07T14:18:32;0.40;99.90
50013;DHT22;35901;48.694;9.476;2024-01-07T14:20:59;0.40;99.90
50013;DHT22;35901;48.694;9.476;2024-01-07T14:23:40;0.40;99.90
50013;DHT22;35901;48.694;9.476;2024-01-07T14:26:05;0.40;99.90
50013;DHT22;35901;48.694;9.476;2024-01-07T14:28:31;0.40;99.90
50013;DHT22;35901;48.694;9.476;2024-01-07T14:30:57;0.30;99.90
50013;DHT22;35901;48.694;9.476;2024-01-07T14:33:23;0.30;99.90
50013;DHT22;35901;48.694;9.476;2024-01-07T14:35:49;0.20;99.90
50013;DHT22;35901;48.694;9.476;2024-01-07T14:38:15;0.20;99.90
50013;DHT22;35901;48.694;9.476;2024-01-07T14:40:40;0.20;99.90
50013;DHT22;35901;48.694;9.476;2024-01-07T14:43:06;0.10;99.90
50013;DHT22;35901;48.694;9.476;2024-01-07T14:45:32;0.00;99.90
50013;DHT22;35901;48.694;9.476;2024-01-07T14:47:58;0.00;99.90
50013;DHT22;35901;48.694;9.476;2024-01-07T14:50:24;0.00;99.90
50013;DHT22;35901;48.694;9.476;2024-01-07T14:52:49;-0.10;99.90
50013;DHT22;35901;48.694;9.476;2024-01-07T14:55:15;-0.10;99.90
50013;DHT22;35901;48.694;9.476;2024-01-07T14:57:41;-0.10;99.90
50013;DHT22;35901;48.694;9.476;2024-01-07T15:00:07;-0.10;99.90
50013;DHT22;35901;48.694;9.476;2024-01-07T15:02:34;-0.20;99.90
50013;DHT22;35901;48.694;9.476;2024-01-07T15:05:03;-0.20;99.90
50013;DHT22;35901;48.694;9.476;2024-01-07T15:07:28;-0.20;99.90
50013;DHT22;35901;48.694;9.476;2024-01-07T15:09:54;-0.20;99.90
50013;DHT22;35901;48.694;9.476;2024-01-07T15:12:20;-0.20;99.90
50013;DHT22;35901;48.694;9.476;2024-01-07T15:14:48;-0.20;99.90
50013;DHT22;35901;48.694;9.476;2024-01-07T15:17:14;-0.30;99.90
50013;DHT22;35901;48.694;9.476;2024-01-07T15:19:42;-0.30;99.90
50013;DHT22;35901;48.694;9.476;2024-01-07T15:22:10;-0.20;99.90
50013;DHT22;35901;48.694;9.476;2024-01-07T15:24:36;-0.30;99.90
50013;DHT22;35901;48.694;9.476;2024-01-07T15:27:02;-0.30;99.90
50013;DHT22;35901;48.694;9.476;2024-01-07T15:29:28;-0.30;99.90
50013;DHT22;35901;48.694;9.476;2024-01-07T15:31:54;-0.30;99.90
50013;DHT22;35901;48.694;9.476;2024-01-07T15:34:20;-0.40;99.90
50013;DHT22;35901;48.694;9.476;2024-01-07T15:36:49;-0.30;99.90
50013;DHT22;35901;48.694;9.476;2024-01-07T15:39:15;-0.40;99.90
50013;DHT22;35901;48.694;9.476;2024-01-07T15:41:48;-0.30;99.90
50013;DHT22;35901;48.694;9.476;2024-01-07T15:44:15;-0.40;99.90
50013;DHT22;35901;48.694;9.476;2024-01-07T15:46:41;-0.50;99.90
50013;DHT22;35901;48.694;9.476;2024-01-07T15:49:07;-0.50;99.90